Time;durP1;ratioP1;P1;durP2;ratioP2;P2;SDS_P1;SDS_P2;PMS_P1;PMS_P2;Temp;Humidity;BMP_temperature;BMP_pressure;BME280_temperature;BME280_humidity;BME280_pressure;Samples;Min_cycle;Max_cycle;Signal;HPM_P1;HPM_P2
2023/04/25 00:00:32;;;;;;;4.28;2.72;;;;;;;;;;2053112;28;20030;-60
2023/04/25 00:01:52;;;;;;;4.28;2.88;;;;;;;;;;2048386;28;20036;-61
2023/04/25 00:03:11;;;;;;;3.80;3.08;;;;;;;;;;2053344;28;20381;-60
2023/04/25 00:04:30;;;;;;;3.38;3.17;;;;;;;;;;2051316;28;20070;-60
2023/04/25 00:05:49;;;;;;;2.83;2.63;;;;;;;;;;2050507;28;20488;-62
2023/04/25 00:07:07;;;;;;;3.33;3.03;;;;;;;;;;2048530;28;20031;-60
2023/04/25 00:08:26;;;;;;;3.40;3.20;;;;;;;;;;2049629;28;20034;-62
2023/04/25 00:09:45;;;;;;;3.30;3.00;;;;;;;;;;2050541;28;20109;-61
2023/04/25 00:11:04;;;;;;;2.80;2.60;;;;;;;;;;2053590;28;20031;-62
2023/04/25 00:12:24;;;;;;;3.60;3.30;;;;;;;;;;2048352;28;20114;-62
2023/04/25 00:13:43;;;;;;;4.00;3.28;;;;;;;;;;2053760;28;20031;-61
2023/04/25 00:15:03;;;;;;;3.85;3.10;;;;;;;;;;2053324;28;20022;-60
2023/04/25 00:16:23;;;;;;;3.92;3.05;;;;;;;;;;2052017;28;20028;-60
2023/04/25 00:17:42;;;;;;;3.65;2.83;;;;;;;;;;2052954;28;20034;-61
2023/04/25 00:19:02;;;;;;;5.97;3.53;;;;;;;;;;2052550;28;20106;-59
2023/04/25 00:20:23;;;;;;;3.65;3.20;;;;;;;;;;2051728;28;20031;-60
2023/04/25 00:21:42;;;;;;;3.40;3.10;;;;;;;;;;2050122;28;20039;-60
2023/04/25 00:23:01;;;;;;;3.28;3.08;;;;;;;;;;2052300;28;20031;-60
2023/04/25 00:24:20;;;;;;;3.10;2.90;;;;;;;;;;2048953;28;20031;-61
2023/04/25 00:25:38;;;;;;;3.50;3.15;;;;;;;;;;2053402;28;20420;-61
2023/04/25 00:26:57;;;;;;;3.72;3.22;;;;;;;;;;2051783;28;21640;-60
2023/04/25 00:28:16;;;;;;;3.65;3.35;;;;;;;;;;2050567;28;20035;-61
2023/04/25 00:29:35;;;;;;;4.85;3.72;;;;;;;;;;2052939;28;20031;-60
2023/04/25 00:30:55;;;;;;;3.63;3.00;;;;;;;;;;2053522;28;20505;-62
2023/04/25 00:32:14;;;;;;;4.50;3.42;;;;;;;;;;2051236;28;20078;-60
2023/04/25 00:33:33;;;;;;;3.65;3.28;;;;;;;;;;2051170;28;20031;-61
2023/04/25 00:34:52;;;;;;;3.88;3.45;;;;;;;;;;2051741;28;20058;-61
2023/04/25 00:36:11;;;;;;;5.40;3.47;;;;;;;;;;2052032;28;20031;-61
2023/04/25 00:37:30;;;;;;;3.45;3.25;;;;;;;;;;2053901;28;20039;-61
2023/04/25 00:38:49;;;;;;;4.00;3.70;;;;;;;;;;2052736;28;20670;-61
2023/04/25 00:40:09;;;;;;;3.67;3.42;;;;;;;;;;2049234;28;20039;-60
2023/04/25 00:41:30;;;;;;;3.72;3.50;;;;;;;;;;2050418;28;20109;-61
2023/04/25 00:42:49;;;;;;;4.93;3.67;;;;;;;;;;2049190;28;20023;-61
2023/04/25 00:44:11;;;;;;;3.03;2.60;;;;;;;;;;2050730;28;20035;-62
2023/04/25 00:45:30;;;;;;;3.92;3.33;;;;;;;;;;2053318;28;20027;-62
2023/04/25 00:46:49;;;;;;;3.38;3.17;;;;;;;;;;2054764;28;20492;-61
2023/04/25 00:48:08;;;;;;;2.97;2.78;;;;;;;;;;2051346;28;20073;-61
2023/04/25 00:49:27;;;;;;;2.78;2.53;;;;;;;;;;2052947;28;20117;-63
2023/04/25 00:50:50;;;;;;;2.83;2.63;;;;;;;;;;2054637;28;20350;-62
2023/04/25 00:52:10;;;;;;;4.30;3.50;;;;;;;;;;2051346;28;20031;-61
2023/04/25 00:53:30;;;;;;;3.53;3.28;;;;;;;;;;2053535;28;20106;-60
2023/04/25 00:54:49;;;;;;;4.28;3.40;;;;;;;;;;2051628;28;20019;-61
2023/04/25 00:56:08;;;;;;;4.60;3.05;;;;;;;;;;2053305;28;20067;-63
2023/04/25 00:57:27;;;;;;;3.20;3.00;;;;;;;;;;2055033;28;20026;-61
2023/04/25 00:58:46;;;;;;;4.90;3.63;;;;;;;;;;2054180;28;20392;-61
2023/04/25 01:00:06;;;;;;;3.78;3.40;;;;;;;;;;2051752;28;20031;-62
2023/04/25 01:01:25;;;;;;;3.95;3.58;;;;;;;;;;2053110;28;20023;-62
2023/04/25 01:02:44;;;;;;;4.65;3.38;;;;;;;;;;2052390;28;20050;-60
2023/04/25 01:04:03;;;;;;;3.55;3.13;;;;;;;;;;2052364;28;20035;-61
2023/04/25 01:05:22;;;;;;;3.92;3.63;;;;;;;;;;2055452;28;20452;-60
2023/04/25 01:06:41;;;;;;;3.72;3.50;;;;;;;;;;2050287;28;20113;-60
2023/04/25 01:08:01;;;;;;;3.67;3.38;;;;;;;;;;2052736;28;21104;-60
2023/04/25 01:09:21;;;;;;;3.90;3.45;;;;;;;;;;2054765;28;20031;-61
2023/04/25 01:10:40;;;;;;;4.25;3.65;;;;;;;;;;2053240;28;20031;-60
2023/04/25 01:12:00;;;;;;;4.03;3.72;;;;;;;;;;2051702;28;20035;-61
2023/04/25 01:13:19;;;;;;;3.88;3.58;;;;;;;;;;2049460;28;20133;-61
2023/04/25 01:14:38;;;;;;;3.22;3.03;;;;;;;;;;2051825;28;20400;-61
2023/04/25 01:15:58;;;;;;;3.85;3.55;;;;;;;;;;2051813;28;20397;-62
2023/04/25 01:17:19;;;;;;;4.15;3.85;;;;;;;;;;2051219;28;20043;-61
2023/04/25 01:18:38;;;;;;;3.97;3.67;;;;;;;;;;2052998;28;20193;-61
2023/04/25 01:19:57;;;;;;;5.45;4.13;;;;;;;;;;2051974;28;20023;-63
2023/04/25 01:21:16;;;;;;;4.38;3.97;;;;;;;;;;2053109;28;20334;-63
2023/04/25 01:22:35;;;;;;;4.10;3.67;;;;;;;;;;2053336;28;20046;-60
2023/04/25 01:23:54;;;;;;;4.30;4.00;;;;;;;;;;2052667;28;20070;-65
2023/04/25 01:25:14;;;;;;;5.00;4.60;;;;;;;;;;2056107;28;20031;-61
2023/04/25 01:26:33;;;;;;;4.18;3.88;;;;;;;;;;2054345;28;20030;-62
2023/04/25 01:27:52;;;;;;;5.32;3.63;;;;;;;;;;2051229;28;20039;-61
2023/04/25 01:29:11;;;;;;;4.25;3.63;;;;;;;;;;2050853;28;20142;-61
2023/04/25 01:30:30;;;;;;;4.00;3.70;;;;;;;;;;2053482;28;20565;-61
2023/04/25 01:31:50;;;;;;;5.35;3.58;;;;;;;;;;2049265;28;20074;-61
2023/04/25 01:33:10;;;;;;;4.10;3.78;;;;;;;;;;2053914;28;20031;-62
2023/04/25 01:34:29;;;;;;;4.50;4.20;;;;;;;;;;2052265;28;20023;-61
2023/04/25 01:35:48;;;;;;;4.18;3.45;;;;;;;;;;2052528;28;20400;-61
2023/04/25 01:37:07;;;;;;;4.10;3.80;;;;;;;;;;2050048;28;20390;-61
2023/04/25 01:38:26;;;;;;;4.22;3.88;;;;;;;;;;2051268;28;20100;-61
2023/04/25 01:39:45;;;;;;;6.93;3.83;;;;;;;;;;2052829;28;20496;-61
2023/04/25 01:41:04;;;;;;;4.80;3.90;;;;;;;;;;2053331;28;20031;-62
2023/04/25 01:42:23;;;;;;;4.60;4.30;;;;;;;;;;2049008;28;20043;-60
2023/04/25 01:43:42;;;;;;;3.90;3.58;;;;;;;;;;2053504;28;20034;-61
2023/04/25 01:45:02;;;;;;;4.30;3.90;;;;;;;;;;2054724;28;20027;-60
2023/04/25 01:46:21;;;;;;;3.75;3.45;;;;;;;;;;2051189;28;20670;-60
2023/04/25 01:47:42;;;;;;;4.25;3.47;;;;;;;;;;2053913;28;20106;-60
2023/04/25 01:49:01;;;;;;;3.75;3.50;;;;;;;;;;2055013;28;20039;-60
2023/04/25 01:50:21;;;;;;;4.00;3.70;;;;;;;;;;2049794;28;20027;-61
2023/04/25 01:51:40;;;;;;;4.82;4.15;;;;;;;;;;2049861;28;20171;-61
2023/04/25 01:52:59;;;;;;;3.35;3.10;;;;;;;;;;2050111;28;20026;-61
2023/04/25 01:54:18;;;;;;;4.00;3.65;;;;;;;;;;2052610;28;20567;-61
2023/04/25 01:55:37;;;;;;;4.03;2.92;;;;;;;;;;2053253;28;20098;-61
2023/04/25 01:56:57;;;;;;;4.07;3.78;;;;;;;;;;2051423;28;20051;-61
2023/04/25 01:58:16;;;;;;;3.95;3.70;;;;;;;;;;2050299;28;20039;-61
2023/04/25 01:59:35;;;;;;;7.50;3.72;;;;;;;;;;2052135;28;20481;-63
2023/04/25 02:00:54;;;;;;;3.85;3.55;;;;;;;;;;2054978;28;20412;-60
2023/04/25 02:02:13;;;;;;;4.03;3.72;;;;;;;;;;2050227;28;20027;-61
2023/04/25 02:03:34;;;;;;;4.22;3.83;;;;;;;;;;2053150;28;20031;-61
2023/04/25 02:04:54;;;;;;;3.65;3.45;;;;;;;;;;2055830;28;20054;-61
2023/04/25 02:06:13;;;;;;;4.47;3.47;;;;;;;;;;2048990;28;20492;-61
2023/04/25 02:07:32;;;;;;;3.35;3.15;;;;;;;;;;2051782;28;20034;-61
2023/04/25 02:08:51;;;;;;;2.83;2.50;;;;;;;;;;2054142;28;20034;-60
2023/04/25 02:10:10;;;;;;;2.60;2.40;;;;;;;;;;2051571;28;20056;-60
2023/04/25 02:11:29;;;;;;;4.38;2.83;;;;;;;;;;2051173;28;20038;-61
2023/04/25 02:12:48;;;;;;;3.10;2.90;;;;;;;;;;2051899;28;20031;-59
2023/04/25 02:14:07;;;;;;;2.90;2.63;;;;;;;;;;2052258;28;20187;-60
2023/04/25 02:15:26;;;;;;;3.67;3.05;;;;;;;;;;2053489;28;20645;-60
2023/04/25 02:16:46;;;;;;;4.50;3.00;;;;;;;;;;2052483;28;20389;-60
2023/04/25 02:18:06;;;;;;;3.85;2.88;;;;;;;;;;2047333;28;20027;-61
2023/04/25 02:19:25;;;;;;;3.88;3.30;;;;;;;;;;2054118;28;20026;-61
2023/04/25 02:20:44;;;;;;;4.40;3.20;;;;;;;;;;2052440;28;20027;-60
2023/04/25 02:22:02;;;;;;;2.70;2.50;;;;;;;;;;2050612;28;20113;-60
2023/04/25 02:23:21;;;;;;;2.90;2.70;;;;;;;;;;2054068;28;20109;-59
2023/04/25 02:24:40;;;;;;;3.33;2.97;;;;;;;;;;2052129;28;20023;-63
2023/04/25 02:25:59;;;;;;;2.83;2.63;;;;;;;;;;2051084;28;20020;-61
2023/04/25 02:27:18;;;;;;;2.65;2.50;;;;;;;;;;2053643;28;20031;-61
2023/04/25 02:28:37;;;;;;;3.58;2.35;;;;;;;;;;2048453;28;20039;-61
2023/04/25 02:29:56;;;;;;;2.90;2.70;;;;;;;;;;2050250;28;20109;-65
2023/04/25 02:31:15;;;;;;;4.25;2.67;;;;;;;;;;2053994;28;20043;-59
2023/04/25 02:32:34;;;;;;;2.33;2.20;;;;;;;;;;2051596;28;20035;-60
2023/04/25 02:33:54;;;;;;;3.40;2.50;;;;;;;;;;2051926;28;20035;-59
2023/04/25 02:35:13;;;;;;;3.38;2.72;;;;;;;;;;2053571;28;20058;-60
2023/04/25 02:36:34;;;;;;;3.08;2.88;;;;;;;;;;2051240;28;20035;-62
2023/04/25 02:37:53;;;;;;;2.53;2.33;;;;;;;;;;2047187;28;20026;-60
2023/04/25 02:39:11;;;;;;;2.47;2.28;;;;;;;;;;2053590;28;20019;-59
2023/04/25 02:40:30;;;;;;;2.97;2.15;;;;;;;;;;2054017;28;20062;-60
2023/04/25 02:41:49;;;;;;;2.03;1.92;;;;;;;;;;2050870;28;20030;-60
2023/04/25 02:43:08;;;;;;;2.05;1.95;;;;;;;;;;2053216;28;20043;-59
2023/04/25 02:44:27;;;;;;;2.35;2.15;;;;;;;;;;2047322;28;20396;-60
2023/04/25 02:45:46;;;;;;;2.22;2.00;;;;;;;;;;2046881;28;20703;-61
2023/04/25 02:47:05;;;;;;;2.03;1.92;;;;;;;;;;2052373;28;20039;-60
2023/04/25 02:48:24;;;;;;;2.28;1.70;;;;;;;;;;2049639;28;20078;-60
2023/04/25 02:49:43;;;;;;;3.10;2.35;;;;;;;;;;2048826;28;20484;-60
2023/04/25 02:51:02;;;;;;;1.80;1.70;;;;;;;;;;2053916;28;20043;-60
2023/04/25 02:52:21;;;;;;;2.05;1.92;;;;;;;;;;2050788;28;20396;-62
2023/04/25 02:53:40;;;;;;;1.70;1.60;;;;;;;;;;2050647;28;20027;-60
2023/04/25 02:54:59;;;;;;;2.20;2.10;;;;;;;;;;2054989;28;20464;-62
2023/04/25 02:56:18;;;;;;;1.90;1.50;;;;;;;;;;2050479;28;20513;-60
2023/04/25 02:57:37;;;;;;;1.90;1.80;;;;;;;;;;2052891;28;20034;-60
2023/04/25 02:58:56;;;;;;;1.90;1.80;;;;;;;;;;2050387;28;20023;-61
2023/04/25 03:00:15;;;;;;;1.60;1.50;;;;;;;;;;2050299;28;20031;-60
2023/04/25 03:01:34;;;;;;;1.83;1.73;;;;;;;;;;2053064;28;20027;-60
2023/04/25 03:02:53;;;;;;;2.00;1.90;;;;;;;;;;2054295;28;20027;-60
2023/04/25 03:04:12;;;;;;;1.60;1.50;;;;;;;;;;2052159;28;20050;-61
2023/04/25 03:05:31;;;;;;;1.67;1.58;;;;;;;;;;2052779;28;20480;-62
2023/04/25 03:06:50;;;;;;;1.38;1.27;;;;;;;;;;2053926;28;20340;-60
2023/04/25 03:08:09;;;;;;;1.10;1.10;;;;;;;;;;2053257;28;20038;-61
2023/04/25 03:09:28;;;;;;;1.50;1.25;;;;;;;;;;2054898;28;20031;-62
2023/04/25 03:10:47;;;;;;;1.30;1.20;;;;;;;;;;2051076;28;20465;-62
2023/04/25 03:12:06;;;;;;;1.20;1.20;;;;;;;;;;2045646;28;20576;-61
2023/04/25 03:13:27;;;;;;;1.10;1.10;;;;;;;;;;2049729;28;20027;-61
2023/04/25 03:14:46;;;;;;;1.27;1.23;;;;;;;;;;2051676;28;20043;-61
2023/04/25 03:16:05;;;;;;;1.65;1.20;;;;;;;;;;2051715;28;20043;-61
2023/04/25 03:17:24;;;;;;;1.00;1.00;;;;;;;;;;2051737;28;20397;-61
2023/04/25 03:18:43;;;;;;;1.00;0.90;;;;;;;;;;2050190;28;20058;-60
2023/04/25 03:20:03;;;;;;;0.90;0.90;;;;;;;;;;2051566;28;20023;-60
2023/04/25 03:21:23;;;;;;;1.33;1.20;;;;;;;;;;2052475;28;20078;-61
2023/04/25 03:22:41;;;;;;;0.88;0.88;;;;;;;;;;2051077;28;20504;-61
2023/04/25 03:24:02;;;;;;;1.00;1.00;;;;;;;;;;2050941;28;20109;-60
2023/04/25 03:25:21;;;;;;;0.70;0.70;;;;;;;;;;2051937;28;20026;-61
2023/04/25 03:26:40;;;;;;;1.13;0.70;;;;;;;;;;2051741;28;20058;-63
2023/04/25 03:27:59;;;;;;;1.10;1.10;;;;;;;;;;2052588;28;20048;-61
2023/04/25 03:29:18;;;;;;;1.60;0.75;;;;;;;;;;2053280;28;20030;-61
2023/04/25 03:30:37;;;;;;;0.77;0.77;;;;;;;;;;2053484;28;20500;-60
2023/04/25 03:31:56;;;;;;;0.60;0.60;;;;;;;;;;2050125;28;20488;-60
2023/04/25 03:33:15;;;;;;;1.13;0.95;;;;;;;;;;2054091;28;20676;-60
2023/04/25 03:34:34;;;;;;;1.00;0.88;;;;;;;;;;2052512;28;20114;-60
2023/04/25 03:35:53;;;;;;;1.17;1.08;;;;;;;;;;2050454;28;20494;-60
2023/04/25 03:37:12;;;;;;;2.03;0.90;;;;;;;;;;2053912;28;20038;-60
2023/04/25 03:38:31;;;;;;;1.10;0.80;;;;;;;;;;2051838;28;20030;-60
2023/04/25 03:39:50;;;;;;;1.38;0.90;;;;;;;;;;2051821;28;20031;-61
2023/04/25 03:41:09;;;;;;;0.93;0.93;;;;;;;;;;2052696;28;20034;-62
2023/04/25 03:42:28;;;;;;;1.88;0.93;;;;;;;;;;2052838;28;20058;-60
2023/04/25 03:43:47;;;;;;;1.00;1.00;;;;;;;;;;2054140;28;20862;-61
2023/04/25 03:45:06;;;;;;;2.42;0.98;;;;;;;;;;2050661;28;20762;-61
2023/04/25 03:46:25;;;;;;;2.55;1.02;;;;;;;;;;2050016;28;20043;-61
2023/04/25 03:47:44;;;;;;;0.80;0.80;;;;;;;;;;2051909;28;20444;-62
2023/04/25 03:49:03;;;;;;;4.53;1.05;;;;;;;;;;2050680;28;20035;-60
2023/04/25 03:50:22;;;;;;;1.02;0.93;;;;;;;;;;2053851;28;20062;-60
2023/04/25 03:51:41;;;;;;;0.70;0.70;;;;;;;;;;2051907;28;20035;-60
2023/04/25 03:53:00;;;;;;;0.77;0.77;;;;;;;;;;2052537;28;20038;-60
2023/04/25 03:54:20;;;;;;;1.15;1.13;;;;;;;;;;2048778;28;20544;-60
2023/04/25 03:55:39;;;;;;;0.80;0.80;;;;;;;;;;2053131;28;20043;-60
2023/04/25 03:56:58;;;;;;;3.38;1.23;;;;;;;;;;2053022;28;20023;-60
2023/04/25 03:58:17;;;;;;;1.25;1.02;;;;;;;;;;2052162;28;20031;-61
2023/04/25 03:59:36;;;;;;;0.95;0.95;;;;;;;;;;2051498;28;20042;-61
2023/04/25 04:00:55;;;;;;;0.95;0.95;;;;;;;;;;2054683;28;20023;-61
2023/04/25 04:02:14;;;;;;;1.00;0.88;;;;;;;;;;2053521;28;20516;-60
2023/04/25 04:03:36;;;;;;;2.33;0.90;;;;;;;;;;2052081;28;20038;-60
2023/04/25 04:04:56;;;;;;;0.60;0.60;;;;;;;;;;2052724;28;20234;-59
2023/04/25 04:06:16;;;;;;;1.15;1.00;;;;;;;;;;2053055;28;20022;-61
2023/04/25 04:07:39;;;;;;;0.88;0.88;;;;;;;;;;2053731;28;20035;-60
2023/04/25 04:08:58;;;;;;;1.58;0.80;;;;;;;;;;2053636;28;20023;-62
2023/04/25 04:10:17;;;;;;;0.75;0.75;;;;;;;;;;2052077;28;20712;-59
2023/04/25 04:11:40;;;;;;;2.08;0.85;;;;;;;;;;2053062;28;20035;-61
2023/04/25 04:12:59;;;;;;;0.80;0.80;;;;;;;;;;2054340;28;20043;-61
2023/04/25 04:14:18;;;;;;;1.88;0.90;;;;;;;;;;2052327;28;20392;-61
2023/04/25 04:15:37;;;;;;;3.33;0.85;;;;;;;;;;2050489;28;20032;-62
2023/04/25 04:16:55;;;;;;;1.73;1.50;;;;;;;;;;2053309;28;20034;-60
2023/04/25 04:18:14;;;;;;;1.73;1.05;;;;;;;;;;2054539;28;20031;-64
2023/04/25 04:19:33;;;;;;;2.05;0.95;;;;;;;;;;2053597;28;20069;-60
2023/04/25 04:20:52;;;;;;;1.15;1.02;;;;;;;;;;2054455;28;20138;-60
2023/04/25 04:22:12;;;;;;;1.02;1.02;;;;;;;;;;2052078;28;20051;-60
2023/04/25 04:23:31;;;;;;;1.00;1.00;;;;;;;;;;2054360;28;20043;-60
2023/04/25 04:24:50;;;;;;;2.03;1.02;;;;;;;;;;2050805;28;20035;-60
2023/04/25 04:26:09;;;;;;;1.15;1.13;;;;;;;;;;2054593;28;20031;-60
2023/04/25 04:27:29;;;;;;;1.10;1.10;;;;;;;;;;2055277;28;20083;-59
2023/04/25 04:28:48;;;;;;;2.00;1.05;;;;;;;;;;2054105;28;20034;-60
2023/04/25 04:30:08;;;;;;;1.27;1.20;;;;;;;;;;2055223;28;20031;-60
2023/04/25 04:31:27;;;;;;;1.50;1.00;;;;;;;;;;2051378;28;20489;-60
2023/04/25 04:32:46;;;;;;;2.28;1.15;;;;;;;;;;2055755;28;20039;-60
2023/04/25 04:34:05;;;;;;;1.33;1.23;;;;;;;;;;2051427;28;20019;-60
2023/04/25 04:35:24;;;;;;;1.92;1.42;;;;;;;;;;2054359;28;20536;-61
2023/04/25 04:36:45;;;;;;;1.52;1.30;;;;;;;;;;2053708;28;20027;-60
2023/04/25 04:38:05;;;;;;;2.95;1.40;;;;;;;;;;2051804;28;20023;-60
2023/04/25 04:39:24;;;;;;;1.50;1.40;;;;;;;;;;2055109;28;20392;-59
2023/04/25 04:40:43;;;;;;;1.58;1.48;;;;;;;;;;2051664;28;20496;-60
2023/04/25 04:42:03;;;;;;;2.63;1.50;;;;;;;;;;2051104;28;20048;-60
2023/04/25 04:43:22;;;;;;;2.33;1.50;;;;;;;;;;2052875;28;20048;-60
2023/04/25 04:44:44;;;;;;;3.45;1.80;;;;;;;;;;2053734;28;21076;-60
2023/04/25 04:46:06;;;;;;;1.85;1.75;;;;;;;;;;2054318;28;20027;-59
2023/04/25 04:47:25;;;;;;;1.60;1.50;;;;;;;;;;2055642;28;20050;-60
2023/04/25 04:48:45;;;;;;;2.42;1.95;;;;;;;;;;2052864;28;20043;-60
2023/04/25 04:50:04;;;;;;;5.45;1.90;;;;;;;;;;2052125;28;20050;-60
2023/04/25 04:51:23;;;;;;;3.00;1.70;;;;;;;;;;2053365;28;20068;-60
2023/04/25 04:52:42;;;;;;;3.40;1.88;;;;;;;;;;2053201;28;20036;-61
2023/04/25 04:54:02;;;;;;;2.38;2.20;;;;;;;;;;2053850;28;20034;-60
2023/04/25 04:55:21;;;;;;;2.20;1.80;;;;;;;;;;2053060;28;20035;-60
2023/04/25 04:56:41;;;;;;;1.80;1.70;;;;;;;;;;2053260;28;20123;-60
2023/04/25 04:58:00;;;;;;;2.42;2.10;;;;;;;;;;2051451;28;20086;-61
2023/04/25 04:59:19;;;;;;;3.53;2.00;;;;;;;;;;2051948;28;20484;-62
2023/04/25 05:00:38;;;;;;;6.15;2.63;;;;;;;;;;2053266;28;20046;-60
2023/04/25 05:01:57;;;;;;;2.35;2.15;;;;;;;;;;2053298;28;20031;-59
2023/04/25 05:03:16;;;;;;;2.72;2.33;;;;;;;;;;2053223;28;20019;-60
2023/04/25 05:04:35;;;;;;;5.38;2.28;;;;;;;;;;2053370;28;20047;-61
2023/04/25 05:05:54;;;;;;;5.03;2.80;;;;;;;;;;2053326;28;21870;-59
2023/04/25 05:07:13;;;;;;;2.90;2.70;;;;;;;;;;2049273;28;20431;-60
2023/04/25 05:08:32;;;;;;;4.63;2.92;;;;;;;;;;2051744;28;20023;-60
2023/04/25 05:09:51;;;;;;;4.80;2.40;;;;;;;;;;2053301;28;20031;-60
2023/04/25 05:11:11;;;;;;;3.35;2.70;;;;;;;;;;2054005;28;20125;-59
2023/04/25 05:12:30;;;;;;;7.07;2.95;;;;;;;;;;2052125;28;20032;-60
2023/04/25 05:13:49;;;;;;;3.58;2.83;;;;;;;;;;2051939;28;20400;-60
2023/04/25 05:15:08;;;;;;;4.60;3.10;;;;;;;;;;2053833;28;20038;-61
2023/04/25 05:16:27;;;;;;;5.32;3.22;;;;;;;;;;2053794;28;20039;-60
2023/04/25 05:17:46;;;;;;;3.88;2.92;;;;;;;;;;2055784;28;20105;-60
2023/04/25 05:19:05;;;;;;;4.30;3.28;;;;;;;;;;2054622;28;20026;-61
2023/04/25 05:20:24;;;;;;;3.20;2.90;;;;;;;;;;2055590;28;20027;-60
2023/04/25 05:21:43;;;;;;;5.65;3.58;;;;;;;;;;2052632;28;20063;-60
2023/04/25 05:23:02;;;;;;;3.47;3.17;;;;;;;;;;2054872;28;20054;-60
2023/04/25 05:24:21;;;;;;;6.03;3.83;;;;;;;;;;2051456;28;20039;-59
2023/04/25 05:25:40;;;;;;;4.22;3.90;;;;;;;;;;2051512;28;20030;-61
2023/04/25 05:26:58;;;;;;;6.10;3.70;;;;;;;;;;2052145;28;20039;-59
2023/04/25 05:28:17;;;;;;;7.55;6.75;;;;;;;;;;2050451;28;20039;-62
2023/04/25 05:29:36;;;;;;;5.13;4.72;;;;;;;;;;2052233;28;20035;-60
2023/04/25 05:30:56;;;;;;;9.43;5.50;;;;;;;;;;2054845;28;20039;-60
2023/04/25 05:32:15;;;;;;;6.38;4.28;;;;;;;;;;2053460;28;20027;-60
2023/04/25 05:33:34;;;;;;;5.00;3.70;;;;;;;;;;2049737;28;20387;-60
2023/04/25 05:34:53;;;;;;;5.15;4.15;;;;;;;;;;2054577;28;20035;-60
2023/04/25 05:36:12;;;;;;;9.93;4.40;;;;;;;;;;2052932;28;20023;-60
2023/04/25 05:37:32;;;;;;;5.60;5.10;;;;;;;;;;2053440;28;20039;-62
2023/04/25 05:38:51;;;;;;;16.13;9.90;;;;;;;;;;2052832;28;20019;-60
2023/04/25 05:40:11;;;;;;;5.72;4.15;;;;;;;;;;2054753;28;20392;-60
2023/04/25 05:41:30;;;;;;;6.50;4.13;;;;;;;;;;2055107;28;20026;-60
2023/04/25 05:42:49;;;;;;;4.90;3.85;;;;;;;;;;2051818;28;20489;-61
2023/04/25 05:44:08;;;;;;;5.38;3.42;;;;;;;;;;2052273;28;20046;-61
2023/04/25 05:45:27;;;;;;;6.07;4.00;;;;;;;;;;2053671;28;20059;-61
2023/04/25 05:46:45;;;;;;;5.45;4.35;;;;;;;;;;2056139;28;20397;-61
2023/04/25 05:48:04;;;;;;;4.50;4.13;;;;;;;;;;2052824;28;20605;-61
2023/04/25 05:49:23;;;;;;;5.90;4.25;;;;;;;;;;2053894;28;20030;-61
2023/04/25 05:50:43;;;;;;;4.53;4.13;;;;;;;;;;2052674;28;20630;-61
2023/04/25 05:52:02;;;;;;;6.35;4.75;;;;;;;;;;2052182;28;20039;-63
2023/04/25 05:53:21;;;;;;;4.22;3.47;;;;;;;;;;2051102;28;20031;-60
2023/04/25 05:54:41;;;;;;;4.95;3.95;;;;;;;;;;2051714;28;20031;-61
2023/04/25 05:56:00;;;;;;;4.82;3.70;;;;;;;;;;2052349;28;20030;-62
2023/04/25 05:57:23;;;;;;;5.88;4.03;;;;;;;;;;2051984;28;20126;-61
2023/04/25 05:58:42;;;;;;;7.53;4.20;;;;;;;;;;2050613;28;20027;-60
2023/04/25 06:00:01;;;;;;;7.13;3.88;;;;;;;;;;2053299;28;20505;-61
2023/04/25 06:01:20;;;;;;;11.90;4.00;;;;;;;;;;2049377;28;20485;-61
2023/04/25 06:02:39;;;;;;;8.25;4.10;;;;;;;;;;2052778;28;20039;-60
2023/04/25 06:03:58;;;;;;;7.50;3.83;;;;;;;;;;2052433;28;20035;-61
2023/04/25 06:05:17;;;;;;;7.00;3.72;;;;;;;;;;2052239;28;20031;-61
2023/04/25 06:06:36;;;;;;;6.40;3.97;;;;;;;;;;2052809;28;20409;-61
2023/04/25 06:07:55;;;;;;;9.07;3.97;;;;;;;;;;2050873;28;20039;-61
2023/04/25 06:09:14;;;;;;;7.53;3.90;;;;;;;;;;2054839;28;20050;-61
2023/04/25 06:10:33;;;;;;;5.13;4.25;;;;;;;;;;2054112;28;20039;-61
2023/04/25 06:11:52;;;;;;;4.90;3.78;;;;;;;;;;2052798;28;20038;-61
2023/04/25 06:13:11;;;;;;;4.80;4.15;;;;;;;;;;2048180;28;20485;-62
2023/04/25 06:14:30;;;;;;;4.13;3.63;;;;;;;;;;2053046;28;20036;-61
2023/04/25 06:15:49;;;;;;;9.75;3.85;;;;;;;;;;2051562;28;20524;-61
2023/04/25 06:17:08;;;;;;;4.75;3.78;;;;;;;;;;2052663;28;20109;-61
2023/04/25 06:18:27;;;;;;;7.13;4.32;;;;;;;;;;2050376;28;20031;-62
2023/04/25 06:19:46;;;;;;;6.13;4.18;;;;;;;;;;2049062;28;20035;-61
2023/04/25 06:21:04;;;;;;;5.97;3.45;;;;;;;;;;2055050;28;20031;-61
2023/04/25 06:22:23;;;;;;;3.60;3.03;;;;;;;;;;2054891;28;20039;-61
2023/04/25 06:23:42;;;;;;;5.03;3.42;;;;;;;;;;2052321;28;20043;-61
2023/04/25 06:25:03;;;;;;;3.92;3.08;;;;;;;;;;2050664;28;20035;-61
2023/04/25 06:26:22;;;;;;;8.35;3.70;;;;;;;;;;2050367;28;20047;-61
2023/04/25 06:27:42;;;;;;;6.25;4.18;;;;;;;;;;2052484;28;20039;-61
2023/04/25 06:29:01;;;;;;;4.57;4.18;;;;;;;;;;2054023;28;20035;-60
2023/04/25 06:30:23;;;;;;;7.30;4.30;;;;;;;;;;2053355;28;20607;-62
2023/04/25 06:31:42;;;;;;;4.60;3.78;;;;;;;;;;2053233;28;20776;-61
2023/04/25 06:33:01;;;;;;;5.40;3.45;;;;;;;;;;2053551;28;20104;-61
2023/04/25 06:34:20;;;;;;;4.72;3.67;;;;;;;;;;2052741;28;20050;-61
2023/04/25 06:35:39;;;;;;;3.78;3.47;;;;;;;;;;2055216;28;20034;-61
2023/04/25 06:36:58;;;;;;;3.92;2.95;;;;;;;;;;2055154;28;20137;-60
2023/04/25 06:38:17;;;;;;;4.65;3.15;;;;;;;;;;2053547;28;20332;-63
2023/04/25 06:39:36;;;;;;;3.33;3.00;;;;;;;;;;2051825;28;20115;-61
2023/04/25 06:40:55;;;;;;;2.97;2.78;;;;;;;;;;2053733;28;20039;-61
2023/04/25 06:42:14;;;;;;;2.90;2.70;;;;;;;;;;2055907;28;20019;-62
2023/04/25 06:43:33;;;;;;;2.75;2.55;;;;;;;;;;2053286;28;20110;-61
2023/04/25 06:44:52;;;;;;;3.90;2.70;;;;;;;;;;2052859;28;20598;-61
2023/04/25 06:46:11;;;;;;;3.20;2.95;;;;;;;;;;2053857;28;20035;-62
2023/04/25 06:47:30;;;;;;;3.00;2.80;;;;;;;;;;2053067;28;20030;-61
2023/04/25 06:48:50;;;;;;;3.80;2.70;;;;;;;;;;2053331;28;20038;-61
2023/04/25 06:50:09;;;;;;;5.15;2.90;;;;;;;;;;2050491;28;20031;-61
2023/04/25 06:51:29;;;;;;;2.88;2.67;;;;;;;;;;2053848;28;20019;-61
2023/04/25 06:52:48;;;;;;;4.15;2.40;;;;;;;;;;2053905;28;20035;-63
2023/04/25 06:54:07;;;;;;;2.63;2.42;;;;;;;;;;2054545;28;20042;-60
2023/04/25 06:55:26;;;;;;;2.25;2.05;;;;;;;;;;2055287;28;20026;-62
2023/04/25 06:56:45;;;;;;;2.80;2.50;;;;;;;;;;2054630;28;20492;-68
2023/04/25 06:58:04;;;;;;;2.45;2.25;;;;;;;;;;2052657;28;20093;-66
2023/04/25 06:59:23;;;;;;;2.75;2.55;;;;;;;;;;2056055;28;20031;-62
2023/04/25 07:00:41;;;;;;;2.80;2.60;;;;;;;;;;2052869;28;20054;-61
2023/04/25 07:02:00;;;;;;;4.20;2.72;;;;;;;;;;2053049;28;20023;-60
2023/04/25 07:03:20;;;;;;;4.03;2.78;;;;;;;;;;2050520;28;20038;-61
2023/04/25 07:04:39;;;;;;;3.45;2.90;;;;;;;;;;2054413;28;20058;-61
2023/04/25 07:05:58;;;;;;;4.82;2.53;;;;;;;;;;2053529;28;20030;-61
2023/04/25 07:07:17;;;;;;;3.45;2.63;;;;;;;;;;2050530;28;20032;-61
2023/04/25 07:08:36;;;;;;;4.13;2.72;;;;;;;;;;2052387;28;20063;-61
2023/04/25 07:09:55;;;;;;;3.05;2.50;;;;;;;;;;2054319;28;20449;-63
2023/04/25 07:11:14;;;;;;;3.05;2.45;;;;;;;;;;2052501;28;20075;-61
2023/04/25 07:12:33;;;;;;;2.63;2.42;;;;;;;;;;2054882;28;20030;-62
2023/04/25 07:13:52;;;;;;;2.47;2.28;;;;;;;;;;2053127;28;20023;-61
2023/04/25 07:15:11;;;;;;;2.47;2.28;;;;;;;;;;2054386;28;20641;-62
2023/04/25 07:16:30;;;;;;;2.55;2.35;;;;;;;;;;2055088;28;20121;-61
2023/04/25 07:17:49;;;;;;;2.83;2.42;;;;;;;;;;2055313;28;20039;-63
2023/04/25 07:19:08;;;;;;;3.33;1.90;;;;;;;;;;2052362;28;20123;-61
2023/04/25 07:20:27;;;;;;;3.25;2.30;;;;;;;;;;2052960;28;20031;-61
2023/04/25 07:21:46;;;;;;;5.53;2.22;;;;;;;;;;2050123;28;20027;-61
2023/04/25 07:23:05;;;;;;;2.60;2.13;;;;;;;;;;2051777;28;20030;-61
2023/04/25 07:24:24;;;;;;;3.05;1.98;;;;;;;;;;2053776;28;20035;-61
2023/04/25 07:25:43;;;;;;;2.78;2.28;;;;;;;;;;2053387;28;20447;-61
2023/04/25 07:27:02;;;;;;;1.95;1.85;;;;;;;;;;2052090;28;20066;-61
2023/04/25 07:28:21;;;;;;;3.53;2.03;;;;;;;;;;2049809;28;20031;-61
2023/04/25 07:29:40;;;;;;;2.50;2.30;;;;;;;;;;2053650;28;20380;-62
2023/04/25 07:30:59;;;;;;;2.15;1.95;;;;;;;;;;2054917;28;20027;-61
2023/04/25 07:32:18;;;;;;;2.38;2.28;;;;;;;;;;2054108;28;20042;-61
2023/04/25 07:33:37;;;;;;;2.20;2.00;;;;;;;;;;2053067;28;20484;-62
2023/04/25 07:34:56;;;;;;;2.00;1.90;;;;;;;;;;2054474;28;20027;-61
2023/04/25 07:36:15;;;;;;;2.22;1.85;;;;;;;;;;2052672;28;20102;-62
2023/04/25 07:37:35;;;;;;;2.13;1.88;;;;;;;;;;2052146;28;20107;-63
2023/04/25 07:38:54;;;;;;;3.92;1.85;;;;;;;;;;2053592;28;20027;-61
2023/04/25 07:40:15;;;;;;;1.60;1.50;;;;;;;;;;2053453;28;20023;-62
2023/04/25 07:41:34;;;;;;;2.08;1.45;;;;;;;;;;2052499;28;20035;-61
2023/04/25 07:42:53;;;;;;;1.70;1.60;;;;;;;;;;2053398;28;20030;-61
2023/04/25 07:44:12;;;;;;;1.55;1.45;;;;;;;;;;2053685;28;20043;-61
2023/04/25 07:45:31;;;;;;;1.98;1.88;;;;;;;;;;2054787;28;20501;-62
2023/04/25 07:46:50;;;;;;;1.77;1.67;;;;;;;;;;2054341;28;20838;-61
2023/04/25 07:48:09;;;;;;;1.80;1.70;;;;;;;;;;2051071;28;20062;-61
2023/04/25 07:49:28;;;;;;;3.40;2.10;;;;;;;;;;2054244;28;20043;-62
2023/04/25 07:50:48;;;;;;;2.30;2.20;;;;;;;;;;2054755;28;20031;-61
2023/04/25 07:52:07;;;;;;;2.47;2.28;;;;;;;;;;2053706;28;20130;-61
2023/04/25 07:53:26;;;;;;;2.33;2.13;;;;;;;;;;2048664;28;20026;-63
2023/04/25 07:54:45;;;;;;;2.17;2.08;;;;;;;;;;2054371;28;20054;-61